Time;durP1;ratioP1;P1;durP2;ratioP2;P2;SDS_P1;SDS_P2;PMS_P1;PMS_P2;Temp;Humidity;BMP_temperature;BMP_pressure;BME280_temperature;BME280_humidity;BME280_pressure;Samples;Min_cycle;Max_cycle;Signal;HPM_P1;HPM_P2
2023/06/12 00:01:52;;;;;;;6.23;5.63;;;18.10;44.10;;;;;;5033508;28;20472;-60
2023/06/12 00:04:19;;;;;;;6.80;6.00;;;18.00;44.30;;;;;;5032911;28;20459;-60
2023/06/12 00:06:47;;;;;;;6.13;5.53;;;18.00;44.60;;;;;;5033260;28;20496;-61
2023/06/12 00:09:14;;;;;;;9.50;5.93;;;17.90;44.80;;;;;;5032963;28;20445;-60
2023/06/12 00:11:41;;;;;;;5.80;5.00;;;17.90;45.10;;;;;;5033392;28;20455;-61
2023/06/12 00:14:08;;;;;;;8.17;6.20;;;17.80;45.50;;;;;;5033164;28;20452;-59
2023/06/12 00:16:37;;;;;;;8.17;7.10;;;17.80;45.70;;;;;;5033186;28;20847;-60
2023/06/12 00:19:04;;;;;;;8.40;6.67;;;17.80;46.00;;;;;;5033309;28;20448;-59
2023/06/12 00:21:31;;;;;;;6.97;5.90;;;17.80;46.40;;;;;;5033384;28;20822;-61
2023/06/12 00:24:00;;;;;;;11.30;6.97;;;17.80;46.80;;;;;;5034046;28;20449;-60
2023/06/12 00:26:27;;;;;;;6.67;5.97;;;17.70;46.90;;;;;;5033111;28;20851;-59
2023/06/12 00:28:54;;;;;;;6.60;6.03;;;17.70;47.30;;;;;;5037161;28;21013;-60
2023/06/12 00:31:20;;;;;;;12.43;6.90;;;17.70;47.80;;;;;;5037320;28;20533;-60
2023/06/12 00:33:47;;;;;;;7.50;6.77;;;17.70;48.10;;;;;;5037717;28;20444;-59
2023/06/12 00:36:14;;;;;;;6.90;6.30;;;17.70;48.40;;;;;;5037164;28;20978;-60
2023/06/12 00:38:41;;;;;;;6.83;6.23;;;17.60;48.60;;;;;;5037099;28;20453;-59
2023/06/12 00:41:09;;;;;;;8.43;6.57;;;17.60;48.90;;;;;;5037337;28;20445;-60
2023/06/12 00:43:36;;;;;;;8.33;6.20;;;17.60;49.30;;;;;;5037063;28;20993;-59
2023/06/12 00:46:04;;;;;;;7.70;6.00;;;17.50;49.40;;;;;;5037099;28;20461;-60
2023/06/12 00:48:31;;;;;;;6.53;5.73;;;17.50;49.70;;;;;;5037166;28;20448;-60
2023/06/12 00:50:59;;;;;;;7.97;6.53;;;17.40;49.90;;;;;;5037208;28;20445;-60
2023/06/12 00:53:26;;;;;;;7.77;6.97;;;17.40;50.10;;;;;;5037374;28;20453;-60
2023/06/12 00:55:53;;;;;;;8.10;6.70;;;17.30;50.50;;;;;;5037304;28;20487;-60
2023/06/12 00:58:22;;;;;;;9.73;7.57;;;17.30;51.00;;;;;;5037306;28;20440;-60
2023/06/12 01:00:49;;;;;;;7.17;6.50;;;17.20;51.40;;;;;;5037004;28;20445;-60
2023/06/12 01:03:17;;;;;;;9.57;6.90;;;17.20;51.90;;;;;;5036343;28;20887;-59
2023/06/12 01:05:47;;;;;;;7.50;6.73;;;17.20;52.40;;;;;;5036448;28;20556;-59
2023/06/12 01:08:19;;;;;;;10.63;7.17;;;17.20;52.70;;;;;;5036710;28;20440;-59
2023/06/12 01:10:53;;;;;;;7.77;6.97;;;17.20;52.90;;;;;;5036808;28;20440;-59
2023/06/12 01:13:22;;;;;;;8.50;7.70;;;17.20;53.10;;;;;;5036299;28;20429;-59
2023/06/12 01:15:49;;;;;;;7.20;6.60;;;17.20;53.30;;;;;;5036585;28;20471;-61
2023/06/12 01:18:17;;;;;;;8.40;7.60;;;17.20;53.50;;;;;;5036589;28;20477;-60
2023/06/12 01:20:44;;;;;;;11.63;7.53;;;17.30;53.70;;;;;;5037059;28;20440;-60
2023/06/12 01:23:18;;;;;;;8.63;7.47;;;17.30;53.70;;;;;;5036330;28;20527;-59
2023/06/12 01:26:05;;;;;;;7.80;7.10;;;17.30;53.80;;;;;;5036074;28;20832;-60
2023/06/12 01:29:00;;;;;;;7.17;6.57;;;17.30;54.40;;;;;;5036312;28;20429;-59
2023/06/12 01:31:34;;;;;;;8.90;8.10;;;17.30;54.00;;;;;;5036339;28;20441;-59
2023/06/12 01:34:15;;;;;;;8.37;7.50;;;17.30;54.10;;;;;;5035951;28;20435;-60
2023/06/12 01:36:45;;;;;;;8.47;6.83;;;17.30;54.30;;;;;;5035781;28;20515;-59
2023/06/12 01:39:13;;;;;;;8.57;7.63;;;17.30;54.40;;;;;;5035478;28;20434;-59
2023/06/12 01:41:40;;;;;;;8.43;7.60;;;17.20;54.50;;;;;;5036203;28;20842;-60
2023/06/12 01:44:08;;;;;;;8.27;7.50;;;17.20;54.60;;;;;;5035896;28;20503;-59
2023/06/12 01:46:35;;;;;;;10.93;7.90;;;17.20;54.80;;;;;;5035678;28;20466;-59
2023/06/12 01:49:04;;;;;;;9.03;8.13;;;17.10;54.80;;;;;;5035896;28;20502;-59
2023/06/12 01:51:31;;;;;;;8.73;7.50;;;17.10;55.10;;;;;;5035968;28;20444;-59
2023/06/12 01:53:58;;;;;;;8.90;7.27;;;17.10;55.20;;;;;;5036073;28;20459;-59
2023/06/12 01:56:25;;;;;;;9.57;8.67;;;17.00;55.40;;;;;;5035464;28;20473;-59
2023/06/12 01:58:52;;;;;;;9.00;8.10;;;17.00;55.60;;;;;;5035875;28;20499;-59
2023/06/12 02:01:20;;;;;;;8.07;7.27;;;16.90;55.80;;;;;;5035293;28;20449;-60
2023/06/12 02:03:48;;;;;;;10.40;8.60;;;16.90;56.00;;;;;;5035405;28;20566;-59
2023/06/12 02:06:17;;;;;;;9.00;8.03;;;16.80;56.20;;;;;;5035260;28;20461;-60
2023/06/12 02:08:45;;;;;;;10.10;8.60;;;16.80;56.50;;;;;;5035494;28;20453;-60
2023/06/12 02:11:11;;;;;;;9.83;8.60;;;16.80;56.70;;;;;;5035250;28;20447;-60
2023/06/12 02:13:38;;;;;;;9.70;8.70;;;16.70;56.90;;;;;;5035786;28;20468;-59
2023/06/12 02:16:08;;;;;;;9.03;8.23;;;16.70;57.20;;;;;;5035264;28;20469;-58
2023/06/12 02:18:34;;;;;;;8.57;7.80;;;16.60;57.50;;;;;;5035363;28;20867;-60
2023/06/12 02:21:01;;;;;;;10.00;8.50;;;16.60;57.70;;;;;;5035468;28;20449;-59
2023/06/12 02:23:29;;;;;;;10.70;8.70;;;16.60;58.00;;;;;;5036067;28;20441;-60
2023/06/12 02:25:56;;;;;;;9.40;8.50;;;16.60;58.30;;;;;;5035807;28;20547;-59
2023/06/12 02:28:23;;;;;;;9.50;8.60;;;16.50;58.50;;;;;;5036021;28;20468;-59
2023/06/12 02:30:50;;;;;;;9.83;8.93;;;16.50;58.70;;;;;;5036256;28;20441;-59
2023/06/12 02:33:16;;;;;;;11.37;9.13;;;16.50;59.00;;;;;;5035466;28;20460;-59
2023/06/12 02:35:43;;;;;;;10.00;9.00;;;16.50;59.40;;;;;;5034813;28;20472;-59
2023/06/12 02:38:10;;;;;;;10.30;8.87;;;16.50;59.60;;;;;;5035756;28;20477;-59
2023/06/12 02:40:38;;;;;;;10.43;9.20;;;16.50;59.90;;;;;;5034812;28;20460;-59
2023/06/12 02:43:05;;;;;;;9.83;8.80;;;16.40;60.00;;;;;;5034669;28;20453;-59
2023/06/12 02:45:32;;;;;;;9.30;8.40;;;16.40;60.40;;;;;;5034501;28;20942;-59
2023/06/12 02:47:58;;;;;;;9.07;8.20;;;16.40;60.80;;;;;;5034418;28;20943;-58
2023/06/12 02:50:25;;;;;;;9.87;8.97;;;16.40;61.00;;;;;;5033408;28;20449;-58
2023/06/12 02:52:52;;;;;;;9.30;8.50;;;16.40;61.30;;;;;;5034818;28;20520;-59
2023/06/12 02:55:19;;;;;;;11.07;9.53;;;16.40;61.60;;;;;;5034690;28;20450;-59
2023/06/12 02:57:47;;;;;;;10.13;9.13;;;16.40;62.10;;;;;;5034834;28;20488;-59
2023/06/12 03:00:14;;;;;;;10.30;9.00;;;16.30;62.30;;;;;;5035147;28;20449;-59
2023/06/12 03:02:42;;;;;;;12.13;9.10;;;16.30;63.00;;;;;;5034662;28;20943;-59
2023/06/12 03:05:12;;;;;;;10.40;9.33;;;16.30;63.20;;;;;;5034762;28;20456;-58
2023/06/12 03:07:44;;;;;;;10.83;9.83;;;16.20;63.70;;;;;;5035330;28;20465;-59
2023/06/12 03:10:11;;;;;;;11.00;8.83;;;16.20;63.90;;;;;;5035216;28;20438;-58
2023/06/12 03:12:37;;;;;;;12.50;9.47;;;16.20;64.40;;;;;;5035332;28;20527;-59
2023/06/12 03:15:07;;;;;;;9.50;8.57;;;16.20;64.70;;;;;;5034083;28;20445;-58
2023/06/12 03:17:34;;;;;;;13.50;10.07;;;16.20;65.10;;;;;;5034014;28;20484;-59
2023/06/12 03:20:05;;;;;;;10.63;9.40;;;16.20;66.00;;;;;;5034287;28;20876;-59
2023/06/12 03:22:32;;;;;;;9.47;8.57;;;16.20;65.70;;;;;;5034353;28;20484;-58
2023/06/12 03:24:59;;;;;;;9.93;8.93;;;16.20;66.00;;;;;;5034139;28;20965;-60
2023/06/12 03:27:29;;;;;;;10.80;9.73;;;16.20;66.20;;;;;;5034204;28;20461;-60
2023/06/12 03:29:56;;;;;;;10.70;9.70;;;16.20;66.60;;;;;;5033826;28;20536;-59
2023/06/12 03:32:25;;;;;;;10.77;9.70;;;16.20;66.90;;;;;;5034362;28;20548;-58
2023/06/12 03:34:52;;;;;;;10.60;9.40;;;16.30;67.20;;;;;;5034201;28;20446;-59
2023/06/12 03:37:19;;;;;;;10.60;9.47;;;16.30;67.30;;;;;;5033836;28;20485;-60
2023/06/12 03:39:46;;;;;;;12.13;9.30;;;16.30;67.50;;;;;;5034168;28;20452;-59
2023/06/12 03:42:13;;;;;;;10.30;9.30;;;16.30;67.70;;;;;;5034327;28;20445;-59
2023/06/12 03:44:39;;;;;;;9.60;8.70;;;16.30;68.00;;;;;;5033819;28;20441;-59
2023/06/12 03:47:06;;;;;;;10.00;8.90;;;16.30;68.20;;;;;;5033857;28;20465;-59
2023/06/12 03:49:34;;;;;;;10.77;8.80;;;16.30;68.40;;;;;;5033760;28;20915;-59
2023/06/12 03:52:01;;;;;;;9.33;8.33;;;16.30;68.60;;;;;;5033984;28;20449;-60
2023/06/12 03:54:28;;;;;;;9.60;8.57;;;16.50;68.70;;;;;;5033742;28;20448;-59
2023/06/12 03:59:24;;;;;;;9.87;8.33;;;16.70;68.60;;;;;;5074000;22;20488;-58
2023/06/12 04:01:52;;;;;;;11.37;10.20;;;17.00;68.30;;;;;;5053200;28;20450;-58
2023/06/12 04:04:19;;;;;;;8.97;8.07;;;17.40;67.10;;;;;;5053056;28;20440;-58
2023/06/12 04:06:47;;;;;;;8.60;7.80;;;17.80;65.70;;;;;;5052862;28;20488;-58
2023/06/12 04:11:49;;;;;;;10.37;8.17;;;18.40;62.70;;;;;;5090883;27;20827;-59
2023/06/12 04:14:16;;;;;;;9.80;8.80;;;18.60;62.00;;;;;;5090176;28;20449;-59
2023/06/12 04:16:43;;;;;;;11.40;8.50;;;18.60;61.30;;;;;;5090302;28;20449;-59
2023/06/12 04:19:12;;;;;;;9.87;8.00;;;18.50;61.30;;;;;;5090233;28;20608;-59
2023/06/12 04:21:39;;;;;;;11.00;8.40;;;18.20;61.40;;;;;;5090745;28;20545;-59
2023/06/12 04:24:15;;;;;;;11.47;8.77;;;18.00;61.80;;;;;;5090484;28;20853;-59
2023/06/12 04:26:44;;;;;;;10.20;9.30;;;17.80;62.40;;;;;;5090027;28;20986;-59
2023/06/12 04:29:12;;;;;;;10.37;8.33;;;17.60;63.00;;;;;;5090050;28;20561;-59
2023/06/12 04:31:39;;;;;;;11.30;8.53;;;17.50;63.50;;;;;;5091171;28;20527;-59
2023/06/12 04:34:07;;;;;;;12.43;9.33;;;17.40;64.00;;;;;;5090318;28;20446;-59
2023/06/12 04:36:37;;;;;;;9.27;8.37;;;17.30;64.40;;;;;;5089723;28;20958;-59
2023/06/12 04:39:05;;;;;;;8.90;8.10;;;17.30;64.90;;;;;;5093020;28;20992;-59
2023/06/12 04:41:32;;;;;;;14.63;8.93;;;17.30;65.20;;;;;;5089954;28;20454;-59
2023/06/12 04:44:00;;;;;;;10.93;9.20;;;17.30;65.40;;;;;;5089999;28;20482;-59
2023/06/12 04:46:28;;;;;;;9.90;8.90;;;17.40;65.90;;;;;;5089765;28;20938;-59
2023/06/12 04:48:55;;;;;;;9.67;8.67;;;17.80;66.00;;;;;;5089442;28;20866;-59
2023/06/12 04:51:23;;;;;;;12.73;8.83;;;18.30;64.80;;;;;;5089612;28;20482;-59
2023/06/12 04:53:53;;;;;;;15.93;8.43;;;18.90;63.20;;;;;;5089705;28;20508;-58
2023/06/12 04:56:21;;;;;;;9.50;8.57;;;19.50;61.60;;;;;;5089653;28;20451;-58
2023/06/12 04:58:49;;;;;;;9.57;8.20;;;20.10;60.10;;;;;;5089707;28;20467;-57
2023/06/12 05:01:19;;;;;;;9.50;8.07;;;20.50;58.90;;;;;;5089096;28;20951;-59
2023/06/12 05:03:49;;;;;;;9.40;8.50;;;20.90;57.90;;;;;;5089888;28;20481;-58
2023/06/12 05:06:16;;;;;;;9.37;8.23;;;21.20;57.00;;;;;;5089865;28;20451;-59
2023/06/12 05:08:43;;;;;;;10.43;9.40;;;21.60;56.30;;;;;;5089627;28;20471;-58
2023/06/12 05:11:10;;;;;;;10.27;8.63;;;21.70;55.70;;;;;;5089156;28;20858;-58
2023/06/12 05:13:37;;;;;;;10.63;9.43;;;21.90;55.30;;;;;;5089156;28;20447;-58
2023/06/12 05:16:04;;;;;;;10.30;9.00;;;22.00;54.50;;;;;;5089241;28;20445;-58
2023/06/12 05:18:30;;;;;;;11.37;8.73;;;21.80;54.80;;;;;;5088901;28;20463;-58
2023/06/12 05:20:59;;;;;;;9.00;8.20;;;21.50;54.50;;;;;;5088471;28;20458;-58
2023/06/12 05:23:27;;;;;;;10.90;8.10;;;21.00;55.10;;;;;;5075290;28;20443;-58
2023/06/12 05:25:53;;;;;;;14.77;10.03;;;20.60;55.70;;;;;;5075675;28;20472;-59
2023/06/12 05:28:20;;;;;;;11.93;10.03;;;20.30;56.30;;;;;;5075560;28;20544;-59
2023/06/12 05:30:48;;;;;;;10.40;9.23;;;20.00;56.70;;;;;;5076084;28;20479;-57
2023/06/12 05:33:15;;;;;;;16.33;10.10;;;19.90;57.20;;;;;;5075626;28;20444;-58
2023/06/12 05:35:43;;;;;;;10.87;9.33;;;19.80;57.50;;;;;;5075551;28;20449;-58
2023/06/12 05:38:12;;;;;;;10.43;8.40;;;19.70;57.60;;;;;;5075123;28;20457;-58
2023/06/12 05:40:38;;;;;;;9.57;8.67;;;19.60;57.90;;;;;;5075440;28;20452;-58
2023/06/12 05:43:05;;;;;;;13.83;9.70;;;19.60;58.30;;;;;;5075014;28;20450;-58
2023/06/12 05:45:32;;;;;;;10.03;9.03;;;19.60;58.50;;;;;;5075302;28;20440;-60
2023/06/12 05:47:59;;;;;;;10.87;9.47;;;19.70;58.60;;;;;;5075617;28;20460;-58
2023/06/12 05:50:26;;;;;;;11.63;9.60;;;19.90;58.80;;;;;;5075711;28;20479;-58
2023/06/12 05:52:53;;;;;;;15.97;9.53;;;20.10;58.60;;;;;;5075718;28;20563;-58
2023/06/12 05:55:21;;;;;;;10.73;9.73;;;20.40;58.50;;;;;;5075754;28;20446;-57
2023/06/12 05:57:48;;;;;;;15.57;9.87;;;20.60;58.60;;;;;;5075933;28;20993;-58
2023/06/12 06:00:16;;;;;;;9.70;8.63;;;20.70;57.70;;;;;;5075216;28;20535;-58
2023/06/12 06:02:43;;;;;;;13.47;9.70;;;20.80;57.60;;;;;;5075371;28;20453;-59
2023/06/12 06:05:11;;;;;;;10.80;8.93;;;20.90;57.50;;;;;;5074918;28;20451;-58
2023/06/12 06:07:38;;;;;;;10.67;9.57;;;20.90;57.50;;;;;;5074863;28;20473;-58
2023/06/12 06:10:06;;;;;;;11.30;9.50;;;21.10;57.50;;;;;;5074488;28;20462;-59
2023/06/12 06:12:34;;;;;;;9.93;8.93;;;21.40;57.50;;;;;;5075240;28;20450;-58
2023/06/12 06:15:01;;;;;;;12.37;9.63;;;21.80;56.80;;;;;;5074855;28;20815;-58
2023/06/12 06:17:28;;;;;;;14.80;9.50;;;22.30;56.70;;;;;;5074913;28;20494;-57
2023/06/12 06:19:55;;;;;;;10.80;9.70;;;22.80;55.20;;;;;;5074775;28;20471;-58
2023/06/12 06:22:24;;;;;;;12.00;9.43;;;23.00;54.20;;;;;;5074968;28;20446;-58
2023/06/12 06:24:51;;;;;;;10.10;9.20;;;23.00;54.00;;;;;;5074960;28;20454;-58
2023/06/12 06:27:18;;;;;;;10.07;9.07;;;23.00;53.80;;;;;;5074902;28;20523;-58
2023/06/12 06:29:46;;;;;;;9.80;8.90;;;23.00;53.70;;;;;;5074259;28;20935;-59
2023/06/12 06:32:13;;;;;;;19.07;9.67;;;23.10;53.60;;;;;;5074494;28;20481;-57
2023/06/12 06:34:39;;;;;;;9.93;8.77;;;23.10;53.40;;;;;;5073821;28;20452;-59
2023/06/12 06:37:07;;;;;;;11.70;9.57;;;23.00;53.30;;;;;;5074341;28;20814;-58
2023/06/12 06:39:34;;;;;;;10.20;9.20;;;23.00;53.10;;;;;;5074349;28;20943;-59
2023/06/12 06:42:00;;;;;;;10.60;9.50;;;22.90;52.90;;;;;;5074479;28;20466;-60
2023/06/12 06:44:27;;;;;;;9.13;8.27;;;22.90;52.90;;;;;;5074251;28;20447;-58
2023/06/12 06:46:55;;;;;;;9.53;7.73;;;22.90;52.80;;;;;;5074580;28;20441;-60
2023/06/12 06:49:23;;;;;;;10.07;8.13;;;22.80;52.60;;;;;;5074423;28;20830;-60
2023/06/12 06:51:50;;;;;;;10.33;9.33;;;22.70;52.60;;;;;;5081954;28;20501;-58
2023/06/12 06:54:16;;;;;;;11.93;8.30;;;22.50;52.70;;;;;;5075248;28;20447;-59
2023/06/12 06:56:43;;;;;;;9.10;8.10;;;22.50;52.90;;;;;;5073727;28;20937;-58
2023/06/12 06:59:10;;;;;;;10.70;9.60;;;22.60;52.90;;;;;;5073745;28;20489;-59
2023/06/12 07:01:39;;;;;;;12.83;8.77;;;22.80;52.90;;;;;;5073823;28;20462;-60
2023/06/12 07:04:07;;;;;;;10.47;9.40;;;22.90;52.70;;;;;;5074088;28;20457;-60
2023/06/12 07:06:34;;;;;;;10.53;9.50;;;23.10;52.50;;;;;;5073811;28;20443;-58
2023/06/12 07:09:01;;;;;;;9.47;8.10;;;23.30;52.40;;;;;;5073625;28;20478;-58
2023/06/12 07:11:29;;;;;;;18.90;8.60;;;23.50;52.10;;;;;;5073246;28;20487;-59
2023/06/12 07:13:56;;;;;;;9.43;8.53;;;23.70;51.90;;;;;;5073687;28;20816;-59
2023/06/12 07:16:22;;;;;;;9.57;8.30;;;23.90;51.60;;;;;;5077205;28;20447;-59
2023/06/12 07:18:49;;;;;;;12.37;8.87;;;24.00;51.30;;;;;;5075055;28;20473;-59
2023/06/12 07:21:17;;;;;;;9.07;8.27;;;24.10;51.00;;;;;;5073500;28;20475;-58
2023/06/12 07:23:45;;;;;;;8.47;7.77;;;24.10;51.00;;;;;;5073820;28;20448;-59
2023/06/12 07:26:12;;;;;;;9.70;8.80;;;24.10;51.10;;;;;;5072958;28;20449;-59
2023/06/12 07:28:39;;;;;;;9.70;8.80;;;24.20;50.90;;;;;;5073026;28;21001;-60
2023/06/12 07:31:05;;;;;;;11.47;8.50;;;24.30;50.70;;;;;;5072838;28;20878;-60
2023/06/12 07:33:32;;;;;;;13.60;8.00;;;24.40;50.60;;;;;;5073032;28;20939;-59
2023/06/12 07:35:59;;;;;;;8.67;7.80;;;24.40;50.50;;;;;;5073163;28;20527;-59
2023/06/12 07:38:27;;;;;;;10.90;9.70;;;24.40;50.30;;;;;;5073982;28;20468;-59
2023/06/12 07:40:54;;;;;;;8.40;7.60;;;24.60;50.20;;;;;;5073925;28;20540;-58
2023/06/12 07:43:21;;;;;;;8.20;7.40;;;24.60;49.90;;;;;;5073535;28;20450;-59
2023/06/12 07:45:48;;;;;;;8.47;6.73;;;24.70;49.60;;;;;;5073060;28;20786;-59
2023/06/12 07:48:14;;;;;;;11.73;7.20;;;24.70;49.30;;;;;;5073078;28;20465;-61
2023/06/12 07:50:42;;;;;;;7.90;7.10;;;24.80;48.90;;;;;;5073855;28;20801;-59
2023/06/12 07:53:09;;;;;;;11.00;7.90;;;25.00;48.50;;;;;;5073515;28;20453;-59
2023/06/12 07:55:37;;;;;;;7.40;6.70;;;25.10;48.00;;;;;;5073817;28;20438;-59
2023/06/12 07:58:06;;;;;;;8.80;7.70;;;25.30;47.60;;;;;;5073492;28;20473;-60
2023/06/12 08:00:35;;;;;;;13.33;8.20;;;25.40;47.20;;;;;;5072644;28;20457;-58
2023/06/12 08:03:03;;;;;;;10.60;8.23;;;25.40;46.80;;;;;;5072922;28;20537;-59
2023/06/12 08:05:30;;;;;;;9.53;7.10;;;25.40;46.60;;;;;;5073020;28;20466;-59
2023/06/12 08:07:59;;;;;;;7.40;6.70;;;25.40;46.50;;;;;;5073034;28;20475;-59
2023/06/12 08:10:25;;;;;;;7.70;6.90;;;25.50;46.50;;;;;;5073484;28;20497;-58
2023/06/12 08:12:54;;;;;;;8.20;7.30;;;25.50;46.30;;;;;;5072879;28;20501;-59
2023/06/12 08:15:21;;;;;;;8.50;7.23;;;25.70;46.00;;;;;;5072690;28;20929;-60
2023/06/12 08:17:48;;;;;;;7.30;6.60;;;25.90;45.80;;;;;;5072451;28;20527;-59
2023/06/12 08:20:17;;;;;;;7.43;6.87;;;26.00;45.60;;;;;;5073478;28;20514;-59
2023/06/12 08:22:44;;;;;;;13.00;7.30;;;26.00;45.30;;;;;;5072961;28;20964;-58
2023/06/12 08:25:11;;;;;;;7.17;6.47;;;26.10;45.20;;;;;;5072808;28;20446;-60
2023/06/12 08:27:38;;;;;;;9.07;6.27;;;26.20;44.90;;;;;;5072689;28;20467;-60
2023/06/12 08:30:07;;;;;;;6.70;6.00;;;26.20;44.30;;;;;;5072833;28;20451;-59
2023/06/12 08:32:36;;;;;;;8.60;6.10;;;26.50;43.90;;;;;;5072632;28;20870;-58
2023/06/12 08:35:04;;;;;;;6.53;5.93;;;26.70;43.20;;;;;;5072635;28;20500;-58
2023/06/12 08:37:32;;;;;;;7.13;6.33;;;26.80;42.70;;;;;;5072317;28;20469;-60
2023/06/12 08:39:59;;;;;;;20.27;18.47;;;26.90;42.00;;;;;;5072764;28;20961;-60
2023/06/12 08:42:26;;;;;;;7.77;6.97;;;27.00;41.70;;;;;;5072929;28;20450;-59
2023/06/12 08:45:00;;;;;;;7.23;6.63;;;27.00;41.50;;;;;;5072358;28;20847;-61
2023/06/12 08:47:32;;;;;;;6.50;5.70;;;27.00;41.40;;;;;;5072258;28;20465;-59
2023/06/12 08:49:59;;;;;;;5.73;5.23;;;27.00;40.80;;;;;;5072813;28;20434;-59
2023/06/12 08:52:26;;;;;;;7.73;6.03;;;27.00;40.20;;;;;;5072678;28;20832;-59
2023/06/12 08:54:53;;;;;;;6.30;5.60;;;27.10;39.30;;;;;;5072689;28;20483;-59
2023/06/12 08:57:20;;;;;;;9.53;5.57;;;27.20;38.60;;;;;;5074046;28;20469;-60
2023/06/12 08:59:47;;;;;;;5.70;5.10;;;27.30;38.30;;;;;;5076027;28;20805;-61
2023/06/12 09:02:15;;;;;;;5.93;5.33;;;27.40;37.90;;;;;;5076681;28;20461;-60
2023/06/12 09:04:49;;;;;;;6.03;5.53;;;27.40;37.00;;;;;;5076191;28;20458;-59
2023/06/12 09:07:18;;;;;;;5.60;4.53;;;27.50;35.90;;;;;;5076764;28;20427;-59
2023/06/12 09:09:46;;;;;;;6.33;5.10;;;27.60;35.00;;;;;;5077260;28;20466;-60
2023/06/12 09:12:15;;;;;;;5.80;5.17;;;27.60;34.40;;;;;;5077131;28;20466;-60
2023/06/12 09:14:44;;;;;;;5.47;4.87;;;27.60;33.80;;;;;;5077212;28;20450;-59
2023/06/12 09:17:11;;;;;;;7.67;5.90;;;27.60;33.60;;;;;;5079912;28;20456;-60
2023/06/12 09:19:41;;;;;;;5.97;5.47;;;27.60;33.00;;;;;;5078536;28;20458;-60
2023/06/12 09:22:09;;;;;;;5.00;4.43;;;27.60;32.60;;;;;;5076845;28;20449;-59
2023/06/12 09:24:36;;;;;;;5.97;5.40;;;27.60;32.60;;;;;;5076555;28;20458;-59
2023/06/12 09:27:04;;;;;;;6.30;4.87;;;27.60;32.10;;;;;;5075927;28;20448;-58
2023/06/12 09:29:32;;;;;;;5.20;4.80;;;27.60;32.50;;;;;;5076579;28;20498;-59
2023/06/12 09:31:59;;;;;;;6.97;5.27;;;27.60;32.50;;;;;;5077423;28;20571;-59
2023/06/12 09:34:27;;;;;;;5.63;5.10;;;27.60;33.00;;;;;;5077001;28;20945;-60
2023/06/12 09:36:53;;;;;;;6.63;4.80;;;27.60;32.90;;;;;;5077132;28;20452;-57
2023/06/12 09:39:28;;;;;;;5.00;4.50;;;27.60;32.80;;;;;;5076032;28;20466;-59
2023/06/12 09:41:56;;;;;;;6.37;4.90;;;27.70;32.60;;;;;;5076043;28;20442;-60
2023/06/12 09:44:25;;;;;;;6.60;5.17;;;27.80;31.80;;;;;;5076451;28;20455;-59
2023/06/12 09:46:52;;;;;;;7.17;4.70;;;27.80;31.70;;;;;;5078623;28;20440;-61
2023/06/12 09:49:22;;;;;;;4.53;4.13;;;27.90;31.80;;;;;;5079163;28;20470;-61
2023/06/12 09:51:51;;;;;;;6.27;3.97;;;27.90;31.70;;;;;;5076297;28;20489;-59
2023/06/12 09:54:18;;;;;;;7.30;3.50;;;28.00;31.50;;;;;;5075124;28;20451;-58
2023/06/12 09:56:48;;;;;;;6.47;4.40;;;28.00;31.00;;;;;;5075756;28;20446;-60
2023/06/12 09:59:19;;;;;;;6.63;4.37;;;28.10;30.50;;;;;;5075053;28;20540;-59
2023/06/12 10:01:48;;;;;;;7.07;4.23;;;28.10;30.30;;;;;;5074753;28;20419;-59
2023/06/12 10:04:31;;;;;;;5.33;4.03;;;28.20;29.90;;;;;;5076959;22;20590;-60
2023/06/12 10:07:13;;;;;;;5.23;4.67;;;28.20;29.50;;;;;;5057967;28;20483;-60
2023/06/12 10:09:41;;;;;;;4.33;3.93;;;28.10;29.10;;;;;;5056673;28;20429;-60
2023/06/12 10:12:12;;;;;;;5.10;4.60;;;28.00;29.40;;;;;;5057850;28;20479;-59
2023/06/12 10:14:40;;;;;;;8.00;4.20;;;28.00;28.80;;;;;;5059820;28;20503;-61
2023/06/12 10:17:09;;;;;;;5.30;4.80;;;27.90;28.90;;;;;;5057999;28;20843;-60
2023/06/12 10:19:40;;;;;;;4.97;4.47;;;27.90;28.70;;;;;;5058305;28;20436;-60
2023/06/12 10:22:08;;;;;;;4.90;4.40;;;27.90;29.40;;;;;;5059687;28;20445;-59
2023/06/12 10:24:36;;;;;;;6.60;4.30;;;28.00;29.10;;;;;;5058850;28;20869;-62
2023/06/12 10:27:04;;;;;;;6.87;4.10;;;28.20;29.10;;;;;;5058106;28;20497;-60
2023/06/12 10:29:36;;;;;;;7.37;4.13;;;28.30;28.90;;;;;;5057727;28;20453;-58
2023/06/12 10:32:05;;;;;;;6.40;4.20;;;28.40;28.80;;;;;;5057902;28;20460;-59
2023/06/12 10:34:34;;;;;;;6.40;4.33;;;28.40;28.70;;;;;;5056848;28;20819;-57
2023/06/12 10:37:22;;;;;;;5.07;3.40;;;28.40;28.50;;;;;;5057871;28;20946;-61
2023/06/12 10:39:49;;;;;;;7.30;3.90;;;28.50;28.20;;;;;;5055187;28;20476;-58
2023/06/12 10:42:18;;;;;;;3.70;3.40;;;28.50;28.10;;;;;;5055401;28;20488;-57
2023/06/12 10:44:49;;;;;;;4.03;3.60;;;28.50;27.90;;;;;;5055643;28;20509;-58
2023/06/12 10:47:21;;;;;;;8.93;3.60;;;28.50;27.80;;;;;;5055633;28;21014;-57
2023/06/12 10:49:58;;;;;;;3.40;3.10;;;28.50;27.60;;;;;;5055378;28;20526;-56
2023/06/12 10:52:25;;;;;;;4.10;3.70;;;28.50;27.50;;;;;;5054837;28;20472;-58
2023/06/12 10:55:23;;;;;;;4.40;3.90;;;28.50;27.30;;;;;;5056437;28;20437;-57
2023/06/12 10:57:52;;;;;;;5.57;3.60;;;28.50;27.50;;;;;;5054351;28;20531;-57
2023/06/12 11:00:21;;;;;;;4.37;3.97;;;28.50;27.40;;;;;;5057208;28;20479;-57
2023/06/12 11:03:00;;;;;;;5.87;4.10;;;28.50;27.30;;;;;;5056989;28;20453;-57
2023/06/12 11:05:28;;;;;;;4.60;4.17;;;28.50;27.00;;;;;;5059559;28;20424;-56
2023/06/12 11:07:59;;;;;;;7.20;4.40;;;28.40;26.90;;;;;;5060661;28;20518;-58
2023/06/12 11:10:27;;;;;;;5.43;4.30;;;28.40;26.80;;;;;;5059412;28;20915;-57
2023/06/12 11:12:54;;;;;;;5.70;4.50;;;28.40;26.60;;;;;;5057424;28;20485;-57
2023/06/12 11:15:23;;;;;;;4.40;3.80;;;28.30;26.50;;;;;;5055679;28;20577;-57
2023/06/12 11:17:51;;;;;;;4.23;3.87;;;28.30;26.40;;;;;;5055653;28;20528;-57
2023/06/12 11:20:19;;;;;;;5.00;4.00;;;28.30;26.20;;;;;;5055108;28;20448;-57
2023/06/12 11:22:47;;;;;;;7.20;3.90;;;28.20;26.20;;;;;;5055144;28;20521;-57
2023/06/12 11:25:15;;;;;;;4.43;3.53;;;28.40;26.50;;;;;;5055175;28;20441;-56
2023/06/12 11:27:41;;;;;;;4.10;3.50;;;28.50;26.40;;;;;;5056003;28;20845;-57
2023/06/12 11:30:13;;;;;;;5.60;3.47;;;28.70;26.10;;;;;;5055528;28;20841;-57
2023/06/12 11:32:43;;;;;;;4.50;4.00;;;28.70;25.50;;;;;;5054659;28;20483;-58
2023/06/12 11:35:11;;;;;;;4.30;3.90;;;28.60;25.10;;;;;;5056107;28;20543;-58
2023/06/12 11:37:40;;;;;;;3.90;3.47;;;28.50;25.00;;;;;;5056705;28;20969;-57
2023/06/12 11:40:11;;;;;;;6.27;4.03;;;28.40;25.20;;;;;;5057057;28;20434;-58
2023/06/12 11:42:40;;;;;;;4.07;3.67;;;28.50;25.30;;;;;;5055846;28;20514;-57
2023/06/12 11:45:08;;;;;;;4.27;3.87;;;28.50;25.30;;;;;;5054581;28;20861;-56
2023/06/12 11:47:37;;;;;;;3.87;3.47;;;28.50;25.20;;;;;;5054443;28;20748;-60
2023/06/12 11:50:08;;;;;;;4.13;3.73;;;28.50;25.20;;;;;;5054809;28;20519;-57
2023/06/12 11:52:36;;;;;;;4.10;3.70;;;28.50;25.20;;;;;;5054775;28;20465;-58
2023/06/12 11:55:05;;;;;;;5.20;3.90;;;28.60;25.10;;;;;;5054642;28;21045;-58
2023/06/12 11:57:32;;;;;;;4.63;3.70;;;28.90;25.00;;;;;;5054007;28;20443;-58
2023/06/12 11:59:59;;;;;;;6.57;3.73;;;29.50;24.70;;;;;;5054560;28;20536;-58
2023/06/12 12:02:32;;;;;;;9.50;4.37;;;30.10;24.30;;;;;;5055128;28;20861;-59
2023/06/12 12:05:00;;;;;;;5.33;3.23;;;30.60;23.40;;;;;;5054737;28;20502;-57
2023/06/12 12:07:29;;;;;;;5.27;4.17;;;30.70;22.80;;;;;;5054902;28;20814;-57
2023/06/12 12:10:05;;;;;;;5.90;3.97;;;30.90;22.70;;;;;;5055861;28;20458;-57
2023/06/12 12:12:43;;;;;;;4.33;3.80;;;31.10;22.60;;;;;;5054089;28;20482;-56
2023/06/12 12:15:10;;;;;;;8.97;4.20;;;31.20;22.20;;;;;;5055112;28;20453;-56
2023/06/12 12:17:38;;;;;;;4.40;3.30;;;31.30;22.00;;;;;;5055866;28;20461;-57
2023/06/12 12:20:08;;;;;;;4.50;3.70;;;31.30;21.50;;;;;;5054296;28;20449;-58
2023/06/12 12:22:40;;;;;;;5.20;3.30;;;31.30;21.40;;;;;;5054490;28;20449;-56
2023/06/12 12:25:08;;;;;;;4.53;3.97;;;31.40;21.40;;;;;;5054176;28;20540;-57
2023/06/12 12:27:36;;;;;;;4.10;3.40;;;31.70;21.50;;;;;;5054420;28;20489;-57
2023/06/12 12:30:04;;;;;;;4.00;3.70;;;32.00;21.30;;;;;;5054307;28;20437;-57
2023/06/12 12:32:31;;;;;;;4.17;3.57;;;32.30;21.80;;;;;;5055477;28;20581;-58
2023/06/12 12:34:58;;;;;;;5.80;3.20;;;32.40;20.90;;;;;;5058060;28;20521;-57
2023/06/12 12:37:26;;;;;;;6.73;3.90;;;32.40;20.80;;;;;;5059061;28;20432;-58
2023/06/12 12:39:54;;;;;;;3.43;3.10;;;32.30;20.90;;;;;;5058833;28;20529;-58
2023/06/12 12:42:21;;;;;;;6.70;3.33;;;32.20;21.10;;;;;;5059024;28;20460;-57
2023/06/12 12:44:48;;;;;;;5.87;4.03;;;31.90;21.70;;;;;;5057109;28;20809;-56
2023/06/12 12:47:15;;;;;;;7.30;4.40;;;31.50;21.20;;;;;;5057527;28;20476;-61
2023/06/12 12:49:42;;;;;;;7.20;3.60;;;30.90;20.90;;;;;;5057744;28;20530;-58
2023/06/12 12:52:08;;;;;;;4.43;3.60;;;30.50;21.00;;;;;;5057847;28;20486;-57
2023/06/12 12:54:35;;;;;;;5.30;3.50;;;30.00;20.90;;;;;;5057940;28;20465;-57